createdAt,value
2023-06-30T00:00:33.598Z,6.33
2023-06-30T00:03:05.316Z,6.27
2023-06-30T00:05:34.147Z,6.67
2023-06-30T00:08:02.045Z,6.70
2023-06-30T00:10:30.001Z,6.50
2023-06-30T00:12:58.480Z,6.70
2023-06-30T00:15:26.411Z,6.70
2023-06-30T00:17:54.735Z,6.63
2023-06-30T00:20:25.451Z,6.97
2023-06-30T00:22:54.190Z,7.50
2023-06-30T00:25:22.025Z,7.20
2023-06-30T00:27:51.407Z,8.20
2023-06-30T00:30:19.779Z,7.93
2023-06-30T00:32:48.883Z,7.07
2023-06-30T00:35:18.281Z,7.33
2023-06-30T00:37:49.079Z,8.40
2023-06-30T00:40:17.133Z,9.07
2023-06-30T00:42:45.852Z,8.03
2023-06-30T00:45:18.617Z,9.50
2023-06-30T00:47:46.941Z,9.30
2023-06-30T00:50:15.605Z,8.30
2023-06-30T00:52:46.139Z,8.43
2023-06-30T00:55:17.552Z,7.87
2023-06-30T00:57:49.515Z,7.83
2023-06-30T01:00:20.000Z,7.37
2023-06-30T01:02:54.485Z,7.83
2023-06-30T01:05:28.388Z,7.30
2023-06-30T01:08:05.248Z,7.30
2023-06-30T01:10:37.445Z,7.50
2023-06-30T01:13:08.967Z,6.83
2023-06-30T01:15:38.907Z,7.47
2023-06-30T01:18:09.908Z,6.97
2023-06-30T01:20:41.737Z,7.33
2023-06-30T01:23:14.769Z,6.77
2023-06-30T01:25:45.253Z,7.73
2023-06-30T01:28:16.169Z,7.20
2023-06-30T01:30:44.828Z,7.30
2023-06-30T01:33:13.424Z,6.93
2023-06-30T01:35:43.267Z,6.70
2023-06-30T01:38:11.565Z,7.00
2023-06-30T01:40:39.770Z,7.20
2023-06-30T01:43:11.772Z,7.30
2023-06-30T01:45:41.645Z,6.83
2023-06-30T01:48:11.057Z,7.43
2023-06-30T01:50:41.039Z,7.93
2023-06-30T01:53:09.179Z,7.47
2023-06-30T01:55:38.248Z,7.63
2023-06-30T01:58:06.222Z,7.23
2023-06-30T02:00:35.714Z,7.00
2023-06-30T02:03:04.029Z,7.30
2023-06-30T02:05:32.687Z,7.83
2023-06-30T02:08:00.689Z,7.00
2023-06-30T02:10:29.060Z,7.63
2023-06-30T02:12:57.502Z,7.33
2023-06-30T02:15:26.839Z,7.03
2023-06-30T02:17:56.204Z,6.53
2023-06-30T02:20:25.938Z,7.40
2023-06-30T02:22:54.499Z,6.97
2023-06-30T02:25:22.849Z,6.60
2023-06-30T02:27:53.516Z,7.13
2023-06-30T02:30:21.506Z,6.67
2023-06-30T02:32:49.602Z,6.70
2023-06-30T02:35:19.719Z,6.93
2023-06-30T02:37:47.629Z,7.30
2023-06-30T02:40:15.782Z,7.50
2023-06-30T02:42:43.729Z,6.77
2023-06-30T02:45:12.287Z,7.23
2023-06-30T02:47:41.723Z,7.63
2023-06-30T02:50:10.600Z,6.97
2023-06-30T02:52:41.194Z,6.67
2023-06-30T02:55:10.185Z,6.97
2023-06-30T02:57:40.359Z,6.50
2023-06-30T03:00:11.070Z,7.70
2023-06-30T03:02:39.274Z,6.73
2023-06-30T03:05:09.096Z,7.07
2023-06-30T03:07:37.105Z,7.77
2023-06-30T03:10:07.709Z,7.97
2023-06-30T03:12:35.637Z,8.40
2023-06-30T03:15:05.369Z,9.17
2023-06-30T03:17:34.669Z,10.20
2023-06-30T03:20:10.029Z,9.20
2023-06-30T03:22:37.912Z,9.33
2023-06-30T03:25:09.841Z,9.00
2023-06-30T03:27:38.334Z,9.13
2023-06-30T03:30:08.875Z,9.43
2023-06-30T03:32:36.709Z,10.70
2023-06-30T03:35:06.115Z,9.80
2023-06-30T03:37:34.533Z,10.70
2023-06-30T03:40:06.191Z,11.90
2023-06-30T03:42:35.804Z,11.80
2023-06-30T03:45:06.708Z,11.80
2023-06-30T03:47:34.632Z,12.13
2023-06-30T03:50:02.954Z,12.13
2023-06-30T03:52:30.954Z,13.03
2023-06-30T03:55:00.429Z,12.93
2023-06-30T03:57:28.626Z,11.80
2023-06-30T03:59:59.108Z,12.33
2023-06-30T04:02:27.745Z,13.03
2023-06-30T04:04:56.963Z,14.23
2023-06-30T04:07:25.555Z,15.37
2023-06-30T04:09:53.844Z,16.53
2023-06-30T04:12:23.393Z,16.00
2023-06-30T04:14:51.872Z,17.33
2023-06-30T04:17:22.728Z,15.90
2023-06-30T04:19:50.565Z,17.57
2023-06-30T04:22:19.472Z,18.03
2023-06-30T04:24:47.858Z,16.73
2023-06-30T04:27:20.877Z,17.03
2023-06-30T04:29:50.278Z,18.27
2023-06-30T04:33:20.770Z,18.77
2023-06-30T04:36:50.455Z,21.47
2023-06-30T04:40:17.254Z,20.77
2023-06-30T04:43:45.410Z,23.63
2023-06-30T04:47:13.334Z,20.67
2023-06-30T04:50:42.598Z,22.40
2023-06-30T04:54:11.101Z,20.83
2023-06-30T04:57:37.696Z,21.53
2023-06-30T05:01:10.194Z,19.77
2023-06-30T05:04:36.835Z,21.07
2023-06-30T05:08:06.642Z,22.43
2023-06-30T05:11:33.581Z,21.47
2023-06-30T05:15:00.472Z,22.53
2023-06-30T05:18:28.448Z,22.20
2023-06-30T05:21:55.119Z,20.07
2023-06-30T05:25:25.189Z,20.53
2023-06-30T05:29:03.393Z,19.10
2023-06-30T05:32:31.161Z,22.83
2023-06-30T05:35:57.794Z,23.53
2023-06-30T05:39:27.092Z,23.87
2023-06-30T05:42:54.284Z,20.77
2023-06-30T05:46:21.641Z,22.33
2023-06-30T05:49:49.527Z,21.67
2023-06-30T05:53:16.306Z,21.73
2023-06-30T05:56:44.317Z,23.13
2023-06-30T06:00:12.192Z,23.47
2023-06-30T06:03:40.314Z,23.67
2023-06-30T06:07:07.061Z,23.90
2023-06-30T06:10:34.482Z,23.20
2023-06-30T06:14:03.886Z,24.17
2023-06-30T06:17:04.339Z,23.53
2023-06-30T06:19:32.497Z,23.30
2023-06-30T06:22:01.681Z,24.57
2023-06-30T06:24:30.178Z,22.93
2023-06-30T06:27:01.199Z,21.60
2023-06-30T06:29:30.913Z,21.70
2023-06-30T06:32:01.841Z,20.67
2023-06-30T06:34:29.742Z,21.00
2023-06-30T06:36:58.917Z,21.17
2023-06-30T06:39:28.068Z,21.17
2023-06-30T06:41:57.738Z,22.17
2023-06-30T06:44:25.562Z,20.43
2023-06-30T06:47:34.165Z,20.93
2023-06-30T06:50:04.184Z,21.37
2023-06-30T06:52:35.913Z,20.63
2023-06-30T06:55:05.372Z,21.00
2023-06-30T06:57:33.351Z,20.27
2023-06-30T07:00:05.792Z,20.80
2023-06-30T07:02:35.305Z,24.43
2023-06-30T07:05:05.028Z,23.30
2023-06-30T07:07:34.312Z,25.97
2023-06-30T07:10:04.267Z,25.33
2023-06-30T07:12:35.377Z,27.60
2023-06-30T07:15:04.973Z,28.30
2023-06-30T07:17:35.226Z,28.83
2023-06-30T07:20:04.008Z,29.40
2023-06-30T07:22:34.415Z,28.13
2023-06-30T07:25:03.846Z,29.93
2023-06-30T07:27:32.492Z,28.70
2023-06-30T07:30:00.739Z,25.23
2023-06-30T07:32:28.814Z,27.23
2023-06-30T07:34:58.506Z,26.13
2023-06-30T07:37:26.920Z,23.77
2023-06-30T07:40:00.074Z,11.93
2023-06-30T07:42:35.707Z,12.53
2023-06-30T07:45:03.740Z,10.53
2023-06-30T07:47:32.604Z,10.10
2023-06-30T07:50:02.544Z,7.17
2023-06-30T07:52:30.978Z,5.17
2023-06-30T07:54:59.727Z,5.10
2023-06-30T07:57:30.228Z,3.70
2023-06-30T07:59:58.686Z,3.60
2023-06-30T08:02:26.914Z,3.20
2023-06-30T08:04:57.711Z,2.50
2023-06-30T08:10:12.315Z,2.80
2023-06-30T08:12:49.212Z,2.40
2023-06-30T08:15:17.481Z,2.43
2023-06-30T08:17:54.222Z,1.97
2023-06-30T08:20:24.987Z,1.87
2023-06-30T08:22:58.673Z,2.20
2023-06-30T08:25:28.314Z,2.00
2023-06-30T08:27:59.207Z,1.57
2023-06-30T08:30:28.815Z,1.70
2023-06-30T08:33:01.344Z,1.90
2023-06-30T08:35:30.365Z,2.00
2023-06-30T08:38:03.640Z,1.80
2023-06-30T08:40:33.585Z,1.63
2023-06-30T08:43:05.019Z,1.73
2023-06-30T08:45:34.334Z,1.60
2023-06-30T08:48:07.832Z,1.60
2023-06-30T08:50:36.493Z,1.60
2023-06-30T08:53:13.958Z,1.50
2023-06-30T08:55:42.519Z,1.60
2023-06-30T08:58:21.095Z,1.50
2023-06-30T09:00:55.530Z,1.43
2023-06-30T09:03:26.542Z,1.90
2023-06-30T09:05:57.131Z,1.50
2023-06-30T09:08:35.600Z,1.50
2023-06-30T09:11:08.762Z,1.50
2023-06-30T09:13:40.958Z,1.40
2023-06-30T09:16:19.191Z,1.33
2023-06-30T09:18:49.503Z,1.47
2023-06-30T09:21:20.115Z,1.33
2023-06-30T09:23:54.519Z,1.43
2023-06-30T09:26:25.132Z,1.30
2023-06-30T09:28:57.277Z,1.20
2023-06-30T09:31:33.644Z,1.50
2023-06-30T09:34:14.034Z,1.50
2023-06-30T09:36:50.590Z,1.27
2023-06-30T09:39:23.312Z,1.83
2023-06-30T09:41:52.976Z,1.20
2023-06-30T09:44:22.699Z,1.10
2023-06-30T09:46:53.605Z,1.13
2023-06-30T09:49:31.243Z,1.00
2023-06-30T09:52:02.034Z,1.07
2023-06-30T09:54:44.503Z,0.90
2023-06-30T09:57:13.992Z,0.80
2023-06-30T09:59:42.782Z,0.80
2023-06-30T10:02:17.218Z,0.77
2023-06-30T10:04:45.968Z,0.67
2023-06-30T10:07:16.000Z,0.80
2023-06-30T10:09:49.835Z,0.70
2023-06-30T10:12:22.539Z,0.60
2023-06-30T10:14:53.154Z,0.70
2023-06-30T10:17:21.595Z,0.90
2023-06-30T10:19:51.414Z,0.80
2023-06-30T10:22:20.081Z,0.80
2023-06-30T10:24:51.377Z,0.80
2023-06-30T10:27:21.843Z,0.80
2023-06-30T10:29:54.382Z,0.70
2023-06-30T10:32:22.921Z,0.60
2023-06-30T10:34:55.486Z,0.57
2023-06-30T10:37:28.265Z,0.50
2023-06-30T10:39:58.722Z,0.70
2023-06-30T10:42:31.749Z,0.47
2023-06-30T10:45:01.488Z,0.60
2023-06-30T10:47:30.257Z,0.33
2023-06-30T10:49:59.166Z,0.40
2023-06-30T10:52:29.532Z,0.40
2023-06-30T10:55:08.078Z,0.37
2023-06-30T10:57:39.058Z,0.40
2023-06-30T11:00:09.074Z,0.40
2023-06-30T11:02:38.246Z,0.37
2023-06-30T11:05:26.527Z,0.23
2023-06-30T11:08:05.139Z,0.37
2023-06-30T11:10:49.857Z,0.40
2023-06-30T11:13:18.338Z,0.40
2023-06-30T11:15:53.659Z,0.37
2023-06-30T11:18:25.444Z,0.60
2023-06-30T11:21:01.360Z,0.70
2023-06-30T11:23:32.020Z,0.50
2023-06-30T11:26:18.137Z,0.70
2023-06-30T11:28:48.832Z,0.57
2023-06-30T11:31:20.287Z,0.60
2023-06-30T11:34:00.175Z,0.80
2023-06-30T11:36:32.242Z,0.80
2023-06-30T11:39:03.686Z,0.77
2023-06-30T11:41:36.230Z,0.80
2023-06-30T11:44:05.365Z,0.70
2023-06-30T11:46:37.792Z,0.67
2023-06-30T11:49:06.875Z,0.60
2023-06-30T11:51:34.997Z,0.70
2023-06-30T11:54:08.683Z,0.80
2023-06-30T11:56:40.950Z,1.00
2023-06-30T11:59:09.862Z,1.00
2023-06-30T12:01:38.771Z,0.80
2023-06-30T12:04:35.325Z,0.80
2023-06-30T12:07:06.723Z,0.77
2023-06-30T12:09:36.979Z,0.80
2023-06-30T12:12:08.891Z,0.70
2023-06-30T12:14:46.026Z,0.80
2023-06-30T12:17:14.125Z,0.70
2023-06-30T12:19:49.313Z,0.80
2023-06-30T12:22:26.158Z,0.97
2023-06-30T12:24:57.567Z,0.80
2023-06-30T12:27:31.449Z,0.73
2023-06-30T12:30:00.321Z,0.97
2023-06-30T12:32:32.519Z,1.03
2023-06-30T12:35:07.655Z,0.97
2023-06-30T12:37:36.170Z,1.07
2023-06-30T12:40:07.051Z,1.30
2023-06-30T12:42:36.982Z,1.10
2023-06-30T12:45:09.418Z,1.10
2023-06-30T12:47:38.435Z,1.20
2023-06-30T12:50:07.892Z,1.20
2023-06-30T12:52:37.386Z,1.03
2023-06-30T12:55:07.464Z,1.23
2023-06-30T12:57:37.473Z,1.27
2023-06-30T13:00:09.645Z,1.17
2023-06-30T13:02:43.227Z,1.30
2023-06-30T13:05:19.290Z,1.40
2023-06-30T13:07:49.534Z,1.40
2023-06-30T13:10:18.076Z,1.10
2023-06-30T13:12:54.104Z,1.10
2023-06-30T13:15:23.712Z,1.00
2023-06-30T13:17:52.116Z,1.08
2023-06-30T13:20:20.573Z,1.17
2023-06-30T13:23:03.270Z,1.23
2023-06-30T13:25:37.941Z,1.20
2023-06-30T13:28:14.622Z,1.13
2023-06-30T13:30:46.161Z,1.20
2023-06-30T13:33:15.013Z,1.10
2023-06-30T13:35:49.537Z,1.23
2023-06-30T13:38:17.745Z,1.40
2023-06-30T13:40:50.146Z,1.50
2023-06-30T13:43:20.540Z,1.67
2023-06-30T13:45:48.681Z,1.40
2023-06-30T13:48:17.870Z,1.60
2023-06-30T13:50:46.414Z,1.55
2023-06-30T13:53:14.904Z,1.65
2023-06-30T13:55:42.930Z,1.65
2023-06-30T13:58:15.730Z,1.70
2023-06-30T14:00:48.364Z,1.55
2023-06-30T14:03:19.118Z,1.60
2023-06-30T14:05:51.582Z,1.85
2023-06-30T14:08:22.048Z,2.15
2023-06-30T14:10:53.637Z,2.10
2023-06-30T14:13:23.063Z,1.77
2023-06-30T14:16:02.763Z,1.77
2023-06-30T14:18:30.918Z,2.00
2023-06-30T14:20:59.502Z,1.95
2023-06-30T14:23:28.167Z,2.50
2023-06-30T14:25:56.992Z,2.10
2023-06-30T14:28:26.978Z,2.00
2023-06-30T14:30:58.987Z,2.00
2023-06-30T14:33:35.145Z,1.92
2023-06-30T14:36:04.709Z,1.80
2023-06-30T14:38:33.664Z,1.80
2023-06-30T14:41:03.217Z,2.10
2023-06-30T14:43:31.341Z,1.75
2023-06-30T14:46:01.103Z,2.20
2023-06-30T14:48:33.281Z,1.60
2023-06-30T14:51:01.295Z,1.70
2023-06-30T14:53:37.525Z,1.90
2023-06-30T14:56:06.346Z,2.20
2023-06-30T14:58:34.574Z,2.77
2023-06-30T15:01:04.362Z,1.90
2023-06-30T15:03:33.472Z,2.20
2023-06-30T15:06:06.245Z,2.20
2023-06-30T15:08:35.432Z,2.08
2023-06-30T15:11:04.081Z,2.00
2023-06-30T15:13:33.636Z,1.90
2023-06-30T15:16:18.670Z,2.03
2023-06-30T15:19:00.348Z,1.77
2023-06-30T15:21:44.369Z,1.90
2023-06-30T15:24:13.376Z,2.20
2023-06-30T15:26:42.704Z,2.42
2023-06-30T15:29:16.439Z,2.08
2023-06-30T15:31:46.596Z,2.30
2023-06-30T15:34:18.236Z,2.58
2023-06-30T15:36:51.763Z,2.85
2023-06-30T15:39:29.963Z,2.37
2023-06-30T15:41:58.189Z,2.30
2023-06-30T15:44:27.736Z,2.37
2023-06-30T15:47:00.523Z,2.60
2023-06-30T15:49:32.304Z,2.40
2023-06-30T15:52:00.904Z,2.80
2023-06-30T15:54:29.454Z,2.70
2023-06-30T15:57:04.309Z,3.50
2023-06-30T15:59:34.325Z,2.97
2023-06-30T16:02:05.278Z,2.83
2023-06-30T16:04:34.064Z,2.50
2023-06-30T16:07:02.140Z,2.40
2023-06-30T16:09:32.203Z,2.90
2023-06-30T16:12:07.471Z,2.40
2023-06-30T16:14:35.820Z,2.50
2023-06-30T16:17:06.526Z,2.43
2023-06-30T16:19:36.456Z,2.50
2023-06-30T16:22:08.376Z,2.30
2023-06-30T16:24:39.439Z,2.47
2023-06-30T16:27:09.557Z,2.10
2023-06-30T16:29:38.315Z,2.30
2023-06-30T16:32:16.302Z,2.43
2023-06-30T16:34:44.550Z,2.70
2023-06-30T16:37:14.231Z,2.80
2023-06-30T16:39:42.194Z,2.63
2023-06-30T16:42:10.085Z,2.45
2023-06-30T16:44:38.537Z,2.53
2023-06-30T16:47:11.939Z,2.30
2023-06-30T16:49:40.324Z,2.70
2023-06-30T16:52:09.445Z,2.60
2023-06-30T16:54:38.003Z,3.58
2023-06-30T16:57:07.924Z,2.57
2023-06-30T16:59:35.773Z,4.47
2023-06-30T17:02:05.227Z,4.37
2023-06-30T17:04:38.593Z,3.00
2023-06-30T17:07:07.823Z,2.90
2023-06-30T17:09:39.101Z,2.70
2023-06-30T17:12:08.438Z,3.07
2023-06-30T17:14:39.513Z,2.80
2023-06-30T17:17:08.316Z,2.83
2023-06-30T17:19:37.855Z,3.23
2023-06-30T17:22:10.220Z,3.17
2023-06-30T17:24:38.917Z,3.00
2023-06-30T17:27:08.414Z,2.90
2023-06-30T17:29:36.344Z,2.77
2023-06-30T17:32:05.215Z,3.03
2023-06-30T17:34:36.233Z,2.50
2023-06-30T17:37:09.307Z,3.80
2023-06-30T17:39:38.703Z,2.43
2023-06-30T17:42:07.680Z,2.30
2023-06-30T17:44:42.527Z,2.60
2023-06-30T17:47:13.614Z,2.38
2023-06-30T17:49:43.178Z,2.42
2023-06-30T17:52:12.789Z,2.55
2023-06-30T17:54:45.122Z,2.80
2023-06-30T17:57:14.357Z,2.20
2023-06-30T17:59:43.016Z,2.30
2023-06-30T18:02:11.541Z,2.05
2023-06-30T18:04:41.168Z,2.03
2023-06-30T18:07:13.106Z,1.70
2023-06-30T18:09:47.638Z,2.27
2023-06-30T18:12:15.880Z,2.50
2023-06-30T18:14:44.199Z,2.70
2023-06-30T18:17:16.427Z,2.33
2023-06-30T18:19:45.244Z,2.10
2023-06-30T18:22:14.781Z,1.80
2023-06-30T18:24:44.502Z,1.50
2023-06-30T18:27:12.442Z,1.50
2023-06-30T18:29:43.054Z,1.60
2023-06-30T18:32:12.079Z,1.77
2023-06-30T18:34:40.538Z,1.60
2023-06-30T18:37:09.072Z,1.60
2023-06-30T18:39:37.162Z,1.50
2023-06-30T18:42:09.090Z,1.60
2023-06-30T18:44:37.945Z,1.60
2023-06-30T18:47:08.025Z,2.30
2023-06-30T18:49:36.299Z,1.73
2023-06-30T18:52:07.328Z,1.90
2023-06-30T18:54:35.555Z,1.97
2023-06-30T18:57:06.066Z,2.87
2023-06-30T18:59:35.547Z,2.40
2023-06-30T19:02:03.810Z,1.30
2023-06-30T19:04:31.781Z,1.30
2023-06-30T19:06:59.954Z,1.40
2023-06-30T19:09:29.607Z,1.63
2023-06-30T19:11:59.515Z,1.60
2023-06-30T19:14:27.617Z,1.53
2023-06-30T19:16:57.156Z,1.53
2023-06-30T19:19:27.254Z,1.30
2023-06-30T19:21:55.010Z,1.50
2023-06-30T19:24:22.983Z,1.90
2023-06-30T19:26:51.248Z,1.70
2023-06-30T19:29:19.669Z,1.60
2023-06-30T19:31:47.590Z,1.70
2023-06-30T19:34:17.448Z,1.60
2023-06-30T19:36:45.364Z,1.77
2023-06-30T19:39:15.941Z,1.97
2023-06-30T19:41:43.780Z,1.57
2023-06-30T19:44:13.936Z,1.53
2023-06-30T19:46:42.162Z,1.80
2023-06-30T19:49:10.254Z,1.60
2023-06-30T19:51:39.471Z,1.70
2023-06-30T19:54:08.443Z,1.70
2023-06-30T19:56:38.151Z,13.00
2023-06-30T19:59:06.397Z,56.53
2023-06-30T20:01:34.274Z,56.23
2023-06-30T20:04:04.041Z,73.90
2023-06-30T20:06:31.999Z,64.53
2023-06-30T20:09:02.116Z,181.27
2023-06-30T20:11:31.272Z,23.90
2023-06-30T20:13:59.147Z,201.63
2023-06-30T20:16:27.483Z,150.27
2023-06-30T20:18:56.171Z,97.33
2023-06-30T20:21:24.747Z,68.87
2023-06-30T20:23:52.920Z,67.60
2023-06-30T20:26:23.430Z,61.70
2023-06-30T20:28:51.902Z,46.90
2023-06-30T20:31:20.478Z,31.10
2023-06-30T20:33:49.516Z,27.37
2023-06-30T20:36:17.681Z,25.70
2023-06-30T20:38:46.126Z,29.93
2023-06-30T20:41:15.101Z,26.97
2023-06-30T20:43:47.089Z,19.77
2023-06-30T20:46:15.399Z,21.87
2023-06-30T20:48:43.700Z,16.90
2023-06-30T20:51:12.356Z,14.10
2023-06-30T20:53:42.082Z,13.03
2023-06-30T20:56:09.878Z,15.47
2023-06-30T20:58:38.205Z,14.13
2023-06-30T21:01:07.688Z,11.90
2023-06-30T21:03:36.237Z,10.13
2023-06-30T21:06:05.474Z,7.67
2023-06-30T21:08:34.341Z,6.43
2023-06-30T21:11:02.548Z,5.73
2023-06-30T21:13:30.394Z,6.60
2023-06-30T21:15:59.916Z,6.83
2023-06-30T21:18:29.530Z,8.10
2023-06-30T21:21:00.949Z,8.13
2023-06-30T21:23:28.918Z,8.20
2023-06-30T21:25:56.699Z,8.73
2023-06-30T21:28:24.994Z,7.30
2023-06-30T21:30:53.808Z,7.50
2023-06-30T21:33:24.205Z,7.23
2023-06-30T21:35:53.883Z,7.03
2023-06-30T21:38:22.673Z,7.43
2023-06-30T21:40:50.787Z,8.20
2023-06-30T21:43:19.171Z,7.40
2023-06-30T21:45:47.741Z,6.07
2023-06-30T21:48:15.954Z,6.33
2023-06-30T21:50:43.833Z,5.53
2023-06-30T21:53:13.905Z,6.10
2023-06-30T21:55:41.859Z,5.53
2023-06-30T21:58:23.130Z,4.70
2023-06-30T22:00:58.184Z,4.00
2023-06-30T22:03:26.700Z,4.00
2023-06-30T22:05:56.546Z,3.47
2023-06-30T22:08:26.853Z,5.37
2023-06-30T22:10:55.976Z,5.00
2023-06-30T22:13:24.822Z,5.30
2023-06-30T22:15:55.092Z,5.10
2023-06-30T22:18:23.307Z,5.53
2023-06-30T22:20:51.558Z,4.93
2023-06-30T22:23:19.429Z,5.30
2023-06-30T22:25:51.264Z,4.93
2023-06-30T22:28:20.971Z,5.47
2023-06-30T22:30:49.271Z,5.73
2023-06-30T22:33:19.400Z,6.57
2023-06-30T22:35:51.766Z,5.83
2023-06-30T22:38:19.853Z,6.43
2023-06-30T22:40:52.358Z,6.47
2023-06-30T22:43:21.237Z,8.50
2023-06-30T22:45:54.185Z,8.17
2023-06-30T22:48:23.241Z,7.60
2023-06-30T22:50:54.890Z,7.10
2023-06-30T22:53:22.916Z,6.47
2023-06-30T22:55:53.058Z,6.10
2023-06-30T22:58:21.346Z,6.17
2023-06-30T23:00:49.625Z,6.10
2023-06-30T23:03:18.647Z,5.97
2023-06-30T23:05:49.859Z,5.57
2023-06-30T23:08:17.749Z,6.07
2023-06-30T23:10:47.327Z,6.20
2023-06-30T23:13:21.273Z,5.80
2023-06-30T23:15:50.520Z,4.77
2023-06-30T23:18:21.058Z,4.50
2023-06-30T23:20:53.454Z,3.80
2023-06-30T23:23:28.665Z,4.40
2023-06-30T23:25:56.652Z,4.50
2023-06-30T23:28:31.622Z,4.50
2023-06-30T23:31:03.150Z,4.40
2023-06-30T23:33:32.061Z,4.23
2023-06-30T23:36:00.177Z,4.70
2023-06-30T23:38:29.068Z,4.13
2023-06-30T23:40:57.812Z,4.53
2023-06-30T23:43:28.367Z,4.50
2023-06-30T23:45:58.350Z,4.70
2023-06-30T23:48:28.750Z,4.30
2023-06-30T23:50:58.335Z,4.10
2023-06-30T23:53:28.608Z,4.67
2023-06-30T23:56:07.111Z,4.30
2023-06-30T23:58:41.759Z,4.53
